ADDS METAR Data INFO
IDs: Format: Raw Decoded Include TAF

Data at: 0950 UTC 25 Jun 2018

KDQH 250935Z AUTO 00000KT 10SM CLR 25/24 A3007 RMK AO2
KDQH 250915Z AUTO 21004KT 10SM CLR 25/24 A3007 RMK AO2
KDQH 250855Z AUTO 21003KT 10SM CLR 25/24 A3007 RMK AO2
KDQH 250835Z AUTO 00000KT 10SM CLR 25/24 A3006 RMK AO2
KDQH 250815Z AUTO 23003KT 10SM CLR 25/24 A3006 RMK AO2
KDQH 250755Z AUTO 22004KT 10SM CLR 25/23 A3007 RMK AO2
KDQH 250735Z AUTO 21003KT 10SM CLR 25/23 A3007 RMK AO2
KDQH 250715Z AUTO 21004KT 10SM CLR 25/23 A3006 RMK AO2
KDQH 250655Z AUTO 20003KT 10SM CLR 26/23 A3005 RMK AO2
KDQH 250635Z AUTO 21004KT 10SM CLR 26/23 A3006 RMK AO2
KDQH 250615Z AUTO 18003KT 10SM CLR 26/23 A3006 RMK AO2 LTG DSNT NE
KDQH 250555Z AUTO 18003KT 10SM CLR 26/23 A3007 RMK AO2
KDQH 250535Z AUTO 00000KT 10SM CLR 26/22 A3007 RMK AO2
KDQH 250515Z AUTO 00000KT 10SM CLR 26/22 A3008 RMK AO2
KDQH 250455Z AUTO 00000KT 10SM CLR 26/22 A3007 RMK AO2
KDQH 250435Z AUTO 00000KT 10SM CLR 26/22 A3007 RMK AO2
KDQH 250415Z AUTO 00000KT 10SM CLR 26/23 A3006 RMK AO2
KDQH 250355Z AUTO 00000KT 10SM CLR 26/23 A3006 RMK AO2
KDQH 250335Z AUTO 00000KT 10SM CLR 27/23 A3006 RMK AO2
KDQH 250315Z AUTO 00000KT 10SM CLR 27/23 A3006 RMK AO2
KDQH 250255Z AUTO 00000KT 10SM CLR 26/23 A3006 RMK AO2
KDQH 250235Z AUTO 00000KT 10SM CLR 27/23 A3007 RMK AO2
KDQH 250215Z AUTO 00000KT 10SM CLR 27/23 A3006 RMK AO2
KDQH 250155Z AUTO 00000KT 10SM SCT065 28/23 A3007 RMK AO2
KDQH 250135Z AUTO 00000KT 10SM CLR 28/23 A3006 RMK AO2
KDQH 250115Z AUTO 00000KT 10SM CLR 28/23 A3005 RMK AO2
KDQH 250055Z AUTO 00000KT 10SM CLR 29/22 A3004 RMK AO2
KDQH 250035Z AUTO 00000KT 10SM CLR 30/22 A3003 RMK AO2
KDQH 250015Z AUTO 00000KT 10SM CLR 31/22 A3002 RMK AO2
KDQH 242355Z AUTO 00000KT 10SM CLR 32/20 A3001 RMK AO2
KDQH 242335Z AUTO 00000KT 10SM CLR 33/20 A3000 RMK AO2
KDQH 242315Z AUTO 00000KT 10SM SCT060 33/20 A3000 RMK AO2
KDQH 242255Z AUTO 00000KT 10SM CLR 33/19 A2999 RMK AO2
KDQH 242235Z AUTO 30005KT 10SM CLR 33/20 A2999 RMK AO2
KDQH 242215Z AUTO 00000KT 10SM CLR 33/20 A2999 RMK AO2
KDQH 242155Z AUTO 26006KT 10SM CLR 33/20 A2999 RMK AO2 LTG DSNT W
KDQH 242135Z AUTO 31005KT 10SM CLR 33/20 A3000 RMK AO2
KDQH 242115Z AUTO 00000KT 10SM SCT055 33/20 A3001 RMK AO2
KDQH 242055Z AUTO 28005KT 10SM SCT055 33/20 A3002 RMK AO2
KDQH 242035Z AUTO 00000KT 10SM CLR 33/20 A3001 RMK AO2
KDQH 242015Z AUTO 24004KT 10SM SCT050 SCT065 33/20 A3002 RMK AO2
KDQH 241955Z AUTO 28008KT 10SM BKN050 BKN065 33/20 A3003 RMK AO2
KDQH 241935Z AUTO 27007KT 10SM SCT050 34/21 A3003 RMK AO2
KDQH 241915Z AUTO 33008KT 10SM SCT050 SCT060 33/21 A3004 RMK AO2
KDQH 241855Z AUTO 34005KT 10SM SCT048 33/20 A3004 RMK AO2
KDQH 241835Z AUTO 29006KT 10SM SCT048 32/21 A3005 RMK AO2
KDQH 241815Z AUTO 29007KT 10SM BKN046 BKN060 33/21 A3006 RMK AO2
KDQH 241755Z AUTO 27005KT 10SM SCT044 SCT050 SCT060 32/21 A3007 RMK AO2
KDQH 241735Z AUTO 28008KT 10SM SCT043 SCT049 32/22 A3007 RMK AO2
KDQH 241715Z AUTO 32006KT 10SM SCT045 32/21 A3007 RMK AO2
KDQH 241655Z AUTO 27005KT 10SM SCT040 32/21 A3007 RMK AO2
KDQH 241635Z AUTO 32006KT 10SM SCT036 31/22 A3008 RMK AO2
KDQH 241615Z AUTO 30006KT 10SM SCT034 31/22 A3008 RMK AO2
KDQH 241555Z AUTO 28007KT 10SM SCT032 31/22 A3008 RMK AO2
KDQH 241535Z AUTO 29003KT 10SM SCT029 30/22 A3009 RMK AO2
KDQH 241515Z AUTO 31006KT 10SM SCT027 30/22 A3009 RMK AO2
KDQH 241455Z AUTO 27006KT 10SM SCT023 30/23 A3008 RMK AO2
KDQH 241435Z AUTO 30004KT 10SM SCT021 30/23 A3008 RMK AO2
KDQH 241415Z AUTO 31006G15KT 10SM SCT019 29/23 A3008 RMK AO2
KDQH 241355Z AUTO 32007KT 10SM SCT017 28/23 A3008 RMK AO2
KDQH 241335Z AUTO 27008KT 10SM BKN017 28/23 A3008 RMK AO2
KDQH 241315Z AUTO 30008KT 10SM SCT015 28/23 A3007 RMK AO2
KDQH 241255Z AUTO 32007KT 290V350 10SM SCT011 27/24 A3006 RMK AO2
KDQH 241235Z AUTO 28007KT 10SM SCT011 27/24 A3006 RMK AO2
KDQH 241215Z AUTO 30006KT 10SM CLR 26/24 A3005 RMK AO2
KDQH 241155Z AUTO 30005KT 10SM CLR 26/24 A3005 RMK AO2
KDQH 241135Z AUTO 29005KT 10SM CLR 25/25 A3005 RMK AO2
KDQH 241115Z AUTO 28004KT 10SM CLR 25/24 A3005 RMK AO2
KDQH 241055Z AUTO 00000KT 7SM CLR 25/24 A3004 RMK AO2
KDQH 241035Z AUTO 27003KT 7SM CLR 25/24 A3003 RMK AO2
KDQH 241015Z AUTO 25003KT 10SM CLR 25/24 A3002 RMK AO2
KDQH 240955Z AUTO 27003KT 7SM CLR 25/24 A3002 RMK AO2
KDQH 240935Z AUTO 26003KT 10SM CLR 25/24 A3001 RMK AO2
KDQH 240915Z AUTO 26003KT 10SM CLR 25/24 A3000 RMK AO2
KDQH 240855Z AUTO 00000KT 10SM CLR 25/25 A3000 RMK AO2
KDQH 240835Z AUTO 26003KT 10SM CLR 25/24 A3000 RMK AO2
KDQH 240815Z AUTO 25003KT 10SM CLR 24/24 A2999 RMK AO2
KDQH 240755Z AUTO 25004KT 10SM CLR 25/24 A2999 RMK AO2
KDQH 240735Z AUTO 24003KT 10SM CLR 25/24 A2998 RMK AO2
KDQH 240715Z AUTO 24004KT 10SM CLR 25/24 A2999 RMK AO2
KDQH 240655Z AUTO 23005KT 10SM CLR 25/23 A2999 RMK AO2
KDQH 240635Z AUTO 23004KT 10SM CLR 25/23 A2999 RMK AO2
KDQH 240615Z AUTO 24004KT 10SM CLR 25/23 A2999 RMK AO2
KDQH 240555Z AUTO 23005KT 10SM CLR 25/23 A2999 RMK AO2
KDQH 240535Z AUTO 24005KT 10SM CLR 25/22 A3000 RMK AO2
KDQH 240515Z AUTO 24004KT 10SM CLR 25/22 A3000 RMK AO2
KDQH 240455Z AUTO 22004KT 10SM CLR 25/22 A2999 RMK AO2
KDQH 240435Z AUTO 22005KT 10SM CLR 25/22 A2999 RMK AO2
KDQH 240415Z AUTO 22004KT 10SM CLR 25/22 A3000 RMK AO2
KDQH 240355Z AUTO 00000KT 10SM CLR 26/22 A3000 RMK AO2
KDQH 240335Z AUTO 00000KT 10SM CLR 26/22 A3000 RMK AO2
KDQH 240315Z AUTO 00000KT 10SM CLR 27/22 A2999 RMK AO2
KDQH 240255Z AUTO 18003KT 10SM CLR 27/22 A2999 RMK AO2
KDQH 240235Z AUTO 00000KT 10SM CLR 27/22 A2998 RMK AO2
KDQH 240215Z AUTO 00000KT 10SM CLR 27/22 A2998 RMK AO2
KDQH 240155Z AUTO 00000KT 10SM CLR 28/21 A2998 RMK AO2
KDQH 240135Z AUTO 00000KT 10SM CLR 28/21 A2998 RMK AO2
KDQH 240115Z AUTO 00000KT 10SM CLR 27/22 A2997 RMK AO2
KDQH 240055Z AUTO 00000KT 10SM CLR 28/22 A2996 RMK AO2 LTG DSNT E
KDQH 240035Z AUTO 00000KT 10SM CLR 29/22 A2997 RMK AO2
KDQH 240015Z AUTO 00000KT 10SM CLR 31/20 A2997 RMK AO2
KDQH 232355Z AUTO 26004KT 10SM CLR 32/20 A2997 RMK AO2 LTG DSNT E
KDQH 232335Z AUTO 26004KT 10SM CLR 32/20 A2995 RMK AO2
KDQH 232315Z AUTO 25004KT 10SM CLR 33/20 A2996 RMK AO2 LTG DSNT E
KDQH 232255Z AUTO 29004KT 10SM CLR 33/19 A2995 RMK AO2
KDQH 232235Z AUTO 27007KT 10SM CLR 33/19 A2995 RMK AO2
KDQH 232215Z AUTO 29008KT 10SM CLR 33/19 A2995 RMK AO2
KDQH 232155Z AUTO 28008KT 10SM CLR 33/19 A2994 RMK AO2